Home > Products > Valid Products > MTR

000
SAUS41 KRLX 172301 COR
MTRCRW
METAR KCRW 172254Z 29004KT 10SM BKN037 19/14 A2997 RMK AO2 SLP144
T01940139





000
SAUS41 KRLX 172200 COR
MTRCRW
METAR KCRW 172154Z 32003KT 10SM BKN034 21/13 A2997 RMK AO2 SLP143
T02110133





000
SAUS41 KRLX 172000 COR
MTRCRW
METAR KCRW 171954Z 31003KT 10SM SCT029 BKN250 21/14 A2999 RMK AO2
SLP149 T02060139 $





000
SAUS41 KRLX 171901 COR
MTRCRW
METAR KCRW 171854Z VRB04KT 10SM SCT030 SCT250 21/14 A2999 RMK AO2
SLP151 T02110139 $





000
SAUS41 KRLX 171830 COR
MTRCRW
SPECI KCRW 171824Z 33005KT 10SM SCT027 SCT250 20/14 A3000 RMK AO2
T02000139 $





000
SAUS41 KRLX 171800 COR
MTRCRW
METAR KCRW 171754Z VRB03KT 10SM BKN022 19/14 A3001 RMK AO2 SLP157
T01940139 10200 20122 56015 $





000
SAUS41 KRLX 171701 COR
MTRCRW
METAR KCRW 171654Z 07003KT 10SM BKN015 18/14 A3001 RMK AO2 SLP159
T01780139 $





000
SAUS41 KRLX 171600 COR
MTRCRW
METAR KCRW 171554Z VRB06KT 10SM OVC010 16/13 A3003 RMK AO2 SLP167
T01560133 $





000
SAUS41 KRLX 171544 COR
MTRCRW
SPECI KCRW 171538Z VRB03KT 9SM FEW002 OVC010 16/14 A3004 RMK AO2
T01610139 $





000
SAUS41 KRLX 171507 COR
MTRCRW
METAR KCRW 171454Z COR 00000KT 8SM FEW002 OVC008 15/13 A3005 RMK AO2
SLP174 T01500133 58002 $





000
SAUS41 KRLX 171455
MTRCRW
METAR KCRW 171454Z 00000KT 8SM FEW002 OVC008 15/13 A3005 RMK AO2
SLP174 T01500133 $





000
SAUS41 KRLX 171454 COR
MTRCRW
SPECI KCRW 171445Z 06003KT 8SM FEW002 OVC008 15/13 A3006 RMK AO2
T01500133 $





000
SAUS41 KRLX 171400 COR
MTRCRW
METAR KCRW 171354Z 13003KT 2 1/2SM BR FEW002 OVC005 14/13 A3006 RMK
AO2 SLP176 VLY FG PWR OK T01390133 $





000
SAUS41 KRLX 171339 COR
MTRCRW
SPECI KCRW 171329Z 00000KT 2SM BR OVC005 13/13 A3006 RMK AO2 VLY FG
T01330128 $





000
SAUS41 KRLX 171305 COR
MTRCRW
METAR KCRW 171254Z 11003KT 1SM BR OVC002 13/13 A3006 RMK AO2 SLP176
T01280128 RVRNO





000
SAUS41 KRLX 171151 COR
MTRCRW
SPECI KCRW 171143Z 00000KT 1SM BR OVC002 13/13 A3006 RMK AO2
T01280128 RVRNO





000
SAUS41 KRLX 171100 COR
MTRCRW
METAR KCRW 171054Z 00000KT 1/4SM FG VV001 13/13 A3006 RMK AO2 SLP175
T01280128 RVRNO $





000
SAUS41 KRLX 171000 COR
MTRCRW
METAR KCRW 170954Z 00000KT 1/4SM FG VV001 13/13 A3006 RMK AO2 SLP175
T01280128 RVRNO $





000
SAUS41 KRLX 170700 COR
MTRCRW
METAR KCRW 170654Z 00000KT 1/4SM FG VV001 13/13 A3007 RMK AO2 SLP178
T01280128 RVRNO $





000
SAUS41 KRLX 170600 COR
MTRCRW
METAR KCRW 170554Z 00000KT 1/4SM FG VV001 13/13 A3008 RMK AO2 SLP180
T01330133 10167 20128 58002 RVRNO $





000
SAUS41 KRLX 170500 COR
MTRCRW
METAR KCRW 170454Z 00000KT 1/4SM FG VV001 13/13 A3008 RMK AO2 SLP182
T01330133 401830128 RVRNO $





000
SAUS41 KRLX 170425 COR
MTRCRW
SPECI KCRW 170419Z 00000KT 1/4SM FG BKN001 13/13 A3009 RMK AO2
T01280128 RVRNO $





000
SAUS41 KRLX 170400 COR
MTRCRW
METAR KCRW 170354Z 00000KT 4SM BR SCT001 SCT055 14/14 A3008 RMK AO2
SLP184 DNS VLY FG T01390139 $





000
SAUS41 KRLX 170400 COR
MTRCRW
METAR KCRW 170354Z 00000KT 4SM BR SCT001 SCT055 14/14 A3008 RMK AO2
SLP184 DNS VLY FG T01390139 $





000
SAUS41 KRLX 170300
MTRCRW
METAR KCRW 170254Z COR 00000KT 5SM BR FEW001 SCT050 14/14 A3008 RMK
AO2 SLP184 DNS VLY FG T01390139 52008 $





000
SAUS41 KRLX 170246 COR
MTRCRW
SPECI KCRW 170240Z 00000KT 5SM BR FEW001 SCT050 14/14 A3008 RMK AO2
DNS VLY FG T01440144 $





000
SAUS41 KRLX 170204 COR
MTRCRW
METAR KCRW 170154Z COR 17003KT 7SM BKN050 15/15 A3008 RMK AO2 SLP182
T01500150 $





000
SAUS41 KRLX 170107 COR
MTRCRW
METAR KCRW 170054Z 00000KT 7SM BKN042 OVC065 16/15 A3007 RMK AO2
SLP179 T01610150 $





000
SAUS41 KRLX 162101 COR
MTRCRW
METAR KCRW 162054Z COR 00000KT 10SM SCT019 OVC032 18/14 A3008 RMK
AO2 SLP181 CIG RGD T01830139 57008 $





000
SAUS41 KRLX 161953 COR
MTRCRW
SPECI KCRW 161946Z 01005KT 10SM OVC017 18/14 A3009 RMK AO2 CIG
015V019 T01780139 $





000
SAUS41 KRLX 161901 COR
MTRCRW
METAR KCRW 161854Z 03004KT 10SM OVC017 17/13 A3010 RMK AO2 SLP186
CIG 015V019 T01720133 $





000
SAUS41 KRLX 161736 COR
MTRCRW
SPECI KCRW 161730Z VRB03KT 10SM SCT011 BKN019 OVC035 17/13 A3011 RMK
AO2 BKN V OVC T01720133





000
SAUS41 KRLX 160403 COR
MTRCRW
METAR KCRW 160354Z COR 10003KT 7SM SCT045 BKN085 OVC180 17/17 A3006
RMK AO2 VCSH SLP173 T01670167





    US Dept of Commerce
    National Oceanic and Atmospheric Administration
    National Weather Service
    1325 East West Highway
    Silver Spring, MD 20910
    Page Author: NWS Internet Services Team
Disclaimer
Information Quality
Credits
Glossary
Privacy Policy
Freedom of Information Act (FOIA)
About Us
Career Opportunities